sensor_id;sensor_type;location;lat;lon;timestamp;temperature;humidity
1830;DHT22;914;48.118;11.600;2022-10-16T00:01:21;16.90;99.90
1830;DHT22;914;48.118;11.600;2022-10-16T00:03:48;16.90;99.90
1830;DHT22;914;48.118;11.600;2022-10-16T00:06:16;16.90;99.90
1830;DHT22;914;48.118;11.600;2022-10-16T00:08:42;16.90;99.90
1830;DHT22;914;48.118;11.600;2022-10-16T00:11:17;16.80;99.90
1830;DHT22;914;48.118;11.600;2022-10-16T00:13:45;16.90;99.90
1830;DHT22;914;48.118;11.600;2022-10-16T00:16:12;16.90;99.90
1830;DHT22;914;48.118;11.600;2022-10-16T00:18:38;16.90;99.90
1830;DHT22;914;48.118;11.600;2022-10-16T00:21:09;16.80;99.90
1830;DHT22;914;48.118;11.600;2022-10-16T00:23:36;16.60;99.90
1830;DHT22;914;48.118;11.600;2022-10-16T00:26:06;16.70;99.90
1830;DHT22;914;48.118;11.600;2022-10-16T00:28:32;16.60;99.90
1830;DHT22;914;48.118;11.600;2022-10-16T00:30:58;16.70;99.90
1830;DHT22;914;48.118;11.600;2022-10-16T00:33:24;16.70;99.90
1830;DHT22;914;48.118;11.600;2022-10-16T00:35:50;16.70;99.90
1830;DHT22;914;48.118;11.600;2022-10-16T00:38:16;16.70;99.90
1830;DHT22;914;48.118;11.600;2022-10-16T00:40:42;16.60;99.90
1830;DHT22;914;48.118;11.600;2022-10-16T00:43:13;16.60;99.90
1830;DHT22;914;48.118;11.600;2022-10-16T00:45:40;16.60;99.90
1830;DHT22;914;48.118;11.600;2022-10-16T00:48:10;16.60;99.90
1830;DHT22;914;48.118;11.600;2022-10-16T00:50:36;16.50;99.90
1830;DHT22;914;48.118;11.600;2022-10-16T00:53:03;16.50;99.90
1830;DHT22;914;48.118;11.600;2022-10-16T00:55:29;16.50;99.90
1830;DHT22;914;48.118;11.600;2022-10-16T00:57:56;16.50;99.90
1830;DHT22;914;48.118;11.600;2022-10-16T01:00:25;16.60;99.90
1830;DHT22;914;48.118;11.600;2022-10-16T01:02:53;16.50;99.90
1830;DHT22;914;48.118;11.600;2022-10-16T01:05:24;16.50;99.90
1830;DHT22;914;48.118;11.600;2022-10-16T01:08:05;16.60;99.90
1830;DHT22;914;48.118;11.600;2022-10-16T01:10:41;16.70;99.90
1830;DHT22;914;48.118;11.600;2022-10-16T01:13:18;16.70;99.90
1830;DHT22;914;48.118;11.600;2022-10-16T01:15:55;16.60;99.90
1830;DHT22;914;48.118;11.600;2022-10-16T01:18:34;16.50;99.90
1830;DHT22;914;48.118;11.600;2022-10-16T01:21:17;16.40;99.90
1830;DHT22;914;48.118;11.600;2022-10-16T01:24:14;16.40;99.90
1830;DHT22;914;48.118;11.600;2022-10-16T01:30:04;16.40;99.90
1830;DHT22;914;48.118;11.600;2022-10-16T01:32:56;16.30;99.90
1830;DHT22;914;48.118;11.600;2022-10-16T01:35:32;16.20;99.90
1830;DHT22;914;48.118;11.600;2022-10-16T01:38:15;16.10;99.90
1830;DHT22;914;48.118;11.600;2022-10-16T01:40:45;16.20;99.90
1830;DHT22;914;48.118;11.600;2022-10-16T01:43:17;16.30;99.90
1830;DHT22;914;48.118;11.600;2022-10-16T01:45:45;16.30;99.90
1830;DHT22;914;48.118;11.600;2022-10-16T01:48:14;16.30;99.90
1830;DHT22;914;48.118;11.600;2022-10-16T01:50:43;16.30;99.90
1830;DHT22;914;48.118;11.600;2022-10-16T01:53:12;16.20;99.90
1830;DHT22;914;48.118;11.600;2022-10-16T01:55:43;16.20;99.90
1830;DHT22;914;48.118;11.600;2022-10-16T01:58:12;16.20;99.90
1830;DHT22;914;48.118;11.600;2022-10-16T02:00:41;16.20;99.90
1830;DHT22;914;48.118;11.600;2022-10-16T02:03:08;16.20;99.90
1830;DHT22;914;48.118;11.600;2022-10-16T02:05:41;16.10;99.90
1830;DHT22;914;48.118;11.600;2022-10-16T02:08:08;16.00;99.90
1830;DHT22;914;48.118;11.600;2022-10-16T02:10:35;16.00;99.90
1830;DHT22;914;48.118;11.600;2022-10-16T02:13:28;16.00;99.90
1830;DHT22;914;48.118;11.600;2022-10-16T02:15:50;15.80;99.90
1830;DHT22;914;48.118;11.600;2022-10-16T02:18:16;15.80;99.90
1830;DHT22;914;48.118;11.600;2022-10-16T02:20:53;15.80;99.90
1830;DHT22;914;48.118;11.600;2022-10-16T02:23:48;15.90;99.90
1830;DHT22;914;48.118;11.600;2022-10-16T02:26:29;16.00;99.90
1830;DHT22;914;48.118;11.600;2022-10-16T02:29:00;16.10;99.90
1830;DHT22;914;48.118;11.600;2022-10-16T02:31:28;16.00;99.90
1830;DHT22;914;48.118;11.600;2022-10-16T02:33:58;15.90;99.90
1830;DHT22;914;48.118;11.600;2022-10-16T02:36:25;15.90;99.90
1830;DHT22;914;48.118;11.600;2022-10-16T02:38:52;15.90;99.90
1830;DHT22;914;48.118;11.600;2022-10-16T02:41:18;15.90;99.90
1830;DHT22;914;48.118;11.600;2022-10-16T02:43:45;15.90;99.90
1830;DHT22;914;48.118;11.600;2022-10-16T02:46:11;16.00;99.90
1830;DHT22;914;48.118;11.600;2022-10-16T02:48:37;16.00;99.90
1830;DHT22;914;48.118;11.600;2022-10-16T02:51:03;15.90;99.90
1830;DHT22;914;48.118;11.600;2022-10-16T02:53:28;15.90;99.90
1830;DHT22;914;48.118;11.600;2022-10-16T02:55:54;16.00;99.90
1830;DHT22;914;48.118;11.600;2022-10-16T02:58:19;15.90;99.90
1830;DHT22;914;48.118;11.600;2022-10-16T03:00:45;15.90;99.90
1830;DHT22;914;48.118;11.600;2022-10-16T03:03:11;15.90;99.90
1830;DHT22;914;48.118;11.600;2022-10-16T03:05:36;15.90;99.90
1830;DHT22;914;48.118;11.600;2022-10-16T03:08:02;15.80;99.90
1830;DHT22;914;48.118;11.600;2022-10-16T03:10:28;15.80;99.90
1830;DHT22;914;48.118;11.600;2022-10-16T03:12:53;15.90;99.90
1830;DHT22;914;48.118;11.600;2022-10-16T03:15:19;15.80;99.90
1830;DHT22;914;48.118;11.600;2022-10-16T03:17:45;15.70;99.90
1830;DHT22;914;48.118;11.600;2022-10-16T03:20:10;15.70;99.90
1830;DHT22;914;48.118;11.600;2022-10-16T03:22:36;15.70;99.90
1830;DHT22;914;48.118;11.600;2022-10-16T03:25:02;15.70;99.90
1830;DHT22;914;48.118;11.600;2022-10-16T03:27:28;15.70;99.90
1830;DHT22;914;48.118;11.600;2022-10-16T03:29:53;15.70;99.90
1830;DHT22;914;48.118;11.600;2022-10-16T03:32:19;15.70;99.90
1830;DHT22;914;48.118;11.600;2022-10-16T03:34:45;15.60;99.90
1830;DHT22;914;48.118;11.600;2022-10-16T03:37:11;15.60;99.90
1830;DHT22;914;48.118;11.600;2022-10-16T03:39:37;15.60;99.90
1830;DHT22;914;48.118;11.600;2022-10-16T03:42:02;15.50;99.90
1830;DHT22;914;48.118;11.600;2022-10-16T03:44:28;15.60;99.90
1830;DHT22;914;48.118;11.600;2022-10-16T03:46:53;15.50;99.90
1830;DHT22;914;48.118;11.600;2022-10-16T03:49:19;15.50;99.90
1830;DHT22;914;48.118;11.600;2022-10-16T03:51:45;15.40;99.90
1830;DHT22;914;48.118;11.600;2022-10-16T03:54:11;15.40;99.90
1830;DHT22;914;48.118;11.600;2022-10-16T03:56:36;15.50;99.90
1830;DHT22;914;48.118;11.600;2022-10-16T03:59:02;15.60;99.90
1830;DHT22;914;48.118;11.600;2022-10-16T04:01:28;15.70;99.90
1830;DHT22;914;48.118;11.600;2022-10-16T04:03:53;15.80;99.90
1830;DHT22;914;48.118;11.600;2022-10-16T04:06:19;15.70;99.90
1830;DHT22;914;48.118;11.600;2022-10-16T04:08:45;15.80;99.90
1830;DHT22;914;48.118;11.600;2022-10-16T04:11:10;15.80;99.90
1830;DHT22;914;48.118;11.600;2022-10-16T04:13:36;15.80;99.90
1830;DHT22;914;48.118;11.600;2022-10-16T04:16:02;15.90;99.90
1830;DHT22;914;48.118;11.600;2022-10-16T04:18:28;16.00;99.90
1830;DHT22;914;48.118;11.600;2022-10-16T04:20:54;16.00;99.90
1830;DHT22;914;48.118;11.600;2022-10-16T04:23:20;16.00;99.90
1830;DHT22;914;48.118;11.600;2022-10-16T04:25:46;16.00;99.90
1830;DHT22;914;48.118;11.600;2022-10-16T04:28:12;15.90;99.90
1830;DHT22;914;48.118;11.600;2022-10-16T04:30:38;15.90;99.90
1830;DHT22;914;48.118;11.600;2022-10-16T04:33:04;16.00;99.90
1830;DHT22;914;48.118;11.600;2022-10-16T04:35:30;16.00;99.90
1830;DHT22;914;48.118;11.600;2022-10-16T04:37:57;15.90;99.90
1830;DHT22;914;48.118;11.600;2022-10-16T04:40:23;15.90;99.90
1830;DHT22;914;48.118;11.600;2022-10-16T04:42:49;15.90;99.90
1830;DHT22;914;48.118;11.600;2022-10-16T04:45:15;15.90;99.90
1830;DHT22;914;48.118;11.600;2022-10-16T04:47:40;15.90;99.90
1830;DHT22;914;48.118;11.600;2022-10-16T04:50:07;15.90;99.90
1830;DHT22;914;48.118;11.600;2022-10-16T04:52:33;15.90;99.90
1830;DHT22;914;48.118;11.600;2022-10-16T04:54:59;15.90;99.90
1830;DHT22;914;48.118;11.600;2022-10-16T04:57:27;15.90;99.90
1830;DHT22;914;48.118;11.600;2022-10-16T04:59:53;15.90;99.90
1830;DHT22;914;48.118;11.600;2022-10-16T05:02:19;15.90;99.90
1830;DHT22;914;48.118;11.600;2022-10-16T05:04:45;15.90;99.90
1830;DHT22;914;48.118;11.600;2022-10-16T05:07:11;15.90;99.90
1830;DHT22;914;48.118;11.600;2022-10-16T05:09:37;15.80;99.90
1830;DHT22;914;48.118;11.600;2022-10-16T05:12:02;15.80;99.90
1830;DHT22;914;48.118;11.600;2022-10-16T05:14:29;15.90;99.90
1830;DHT22;914;48.118;11.600;2022-10-16T05:16:55;15.90;99.90
1830;DHT22;914;48.118;11.600;2022-10-16T05:19:20;15.90;99.90
1830;DHT22;914;48.118;11.600;2022-10-16T05:21:46;16.00;99.90
1830;DHT22;914;48.118;11.600;2022-10-16T05:24:11;16.10;99.90
1830;DHT22;914;48.118;11.600;2022-10-16T05:26:37;16.10;99.90
1830;DHT22;914;48.118;11.600;2022-10-16T05:29:03;16.20;99.90
1830;DHT22;914;48.118;11.600;2022-10-16T05:31:29;16.20;99.90
1830;DHT22;914;48.118;11.600;2022-10-16T05:33:59;16.10;99.90
1830;DHT22;914;48.118;11.600;2022-10-16T05:36:25;16.10;99.90
1830;DHT22;914;48.118;11.600;2022-10-16T05:38:51;16.20;99.90
1830;DHT22;914;48.118;11.600;2022-10-16T05:41:17;16.10;99.90
1830;DHT22;914;48.118;11.600;2022-10-16T05:43:47;16.20;99.90
1830;DHT22;914;48.118;11.600;2022-10-16T05:46:14;16.10;99.90
1830;DHT22;914;48.118;11.600;2022-10-16T05:48:40;16.10;99.90
1830;DHT22;914;48.118;11.600;2022-10-16T05:51:07;16.10;99.90
1830;DHT22;914;48.118;11.600;2022-10-16T05:53:34;16.10;99.90
1830;DHT22;914;48.118;11.600;2022-10-16T05:56:01;16.00;99.90
1830;DHT22;914;48.118;11.600;2022-10-16T05:58:32;16.00;99.90
1830;DHT22;914;48.118;11.600;2022-10-16T06:01:03;16.10;99.90
1830;DHT22;914;48.118;11.600;2022-10-16T06:03:29;16.10;99.90
1830;DHT22;914;48.118;11.600;2022-10-16T06:05:55;16.10;99.90
1830;DHT22;914;48.118;11.600;2022-10-16T06:08:22;16.10;99.90
1830;DHT22;914;48.118;11.600;2022-10-16T06:10:49;16.20;99.90
1830;DHT22;914;48.118;11.600;2022-10-16T06:13:15;16.20;99.90
1830;DHT22;914;48.118;11.600;2022-10-16T06:15:42;16.20;99.90
1830;DHT22;914;48.118;11.600;2022-10-16T06:18:11;16.20;99.90
1830;DHT22;914;48.118;11.600;2022-10-16T06:20:37;16.20;99.90
1830;DHT22;914;48.118;11.600;2022-10-16T06:23:03;16.20;99.90
1830;DHT22;914;48.118;11.600;2022-10-16T06:25:30;16.40;99.90
1830;DHT22;914;48.118;11.600;2022-10-16T06:27:56;16.30;99.90
1830;DHT22;914;48.118;11.600;2022-10-16T06:30:22;16.30;99.90
1830;DHT22;914;48.118;11.600;2022-10-16T06:32:47;16.30;99.90
1830;DHT22;914;48.118;11.600;2022-10-16T06:35:13;16.30;99.90
1830;DHT22;914;48.118;11.600;2022-10-16T06:37:39;16.40;99.90
1830;DHT22;914;48.118;11.600;2022-10-16T06:40:05;16.40;99.90
1830;DHT22;914;48.118;11.600;2022-10-16T06:42:30;16.40;99.90
1830;DHT22;914;48.118;11.600;2022-10-16T06:44:56;16.50;99.90
1830;DHT22;914;48.118;11.600;2022-10-16T06:47:22;16.60;99.90
1830;DHT22;914;48.118;11.600;2022-10-16T06:49:47;16.60;99.90
1830;DHT22;914;48.118;11.600;2022-10-16T06:52:13;16.60;99.90
1830;DHT22;914;48.118;11.600;2022-10-16T06:54:39;16.60;99.90
1830;DHT22;914;48.118;11.600;2022-10-16T06:57:04;16.60;99.90
1830;DHT22;914;48.118;11.600;2022-10-16T06:59:30;16.60;99.90
1830;DHT22;914;48.118;11.600;2022-10-16T07:01:55;16.60;99.90
1830;DHT22;914;48.118;11.600;2022-10-16T07:04:21;16.60;99.90
1830;DHT22;914;48.118;11.600;2022-10-16T07:06:47;16.70;99.90
1830;DHT22;914;48.118;11.600;2022-10-16T07:09:12;16.80;99.90
1830;DHT22;914;48.118;11.600;2022-10-16T07:11:39;16.90;99.90
1830;DHT22;914;48.118;11.600;2022-10-16T07:14:15;16.80;99.90
1830;DHT22;914;48.118;11.600;2022-10-16T07:16:40;16.90;99.90
1830;DHT22;914;48.118;11.600;2022-10-16T07:19:06;16.80;99.90
1830;DHT22;914;48.118;11.600;2022-10-16T07:21:35;16.80;99.90
1830;DHT22;914;48.118;11.600;2022-10-16T07:24:01;17.00;99.90
1830;DHT22;914;48.118;11.600;2022-10-16T07:26:28;17.30;99.90
1830;DHT22;914;48.118;11.600;2022-10-16T07:28:56;17.50;99.90
1830;DHT22;914;48.118;11.600;2022-10-16T07:31:23;17.60;99.90
1830;DHT22;914;48.118;11.600;2022-10-16T07:33:49;17.80;99.90
1830;DHT22;914;48.118;11.600;2022-10-16T07:36:16;17.90;99.90
1830;DHT22;914;48.118;11.600;2022-10-16T07:38:43;18.00;99.90
1830;DHT22;914;48.118;11.600;2022-10-16T07:41:13;18.20;99.90
1830;DHT22;914;48.118;11.600;2022-10-16T07:43:40;18.40;99.90
1830;DHT22;914;48.118;11.600;2022-10-16T07:46:10;18.50;99.90
1830;DHT22;914;48.118;11.600;2022-10-16T07:48:35;18.70;99.90
1830;DHT22;914;48.118;11.600;2022-10-16T07:51:04;18.90;99.90
1830;DHT22;914;48.118;11.600;2022-10-16T07:53:30;19.00;99.90
1830;DHT22;914;48.118;11.600;2022-10-16T07:56:04;19.20;99.90
1830;DHT22;914;48.118;11.600;2022-10-16T07:58:31;19.30;99.90
1830;DHT22;914;48.118;11.600;2022-10-16T08:00:57;19.40;99.90
1830;DHT22;914;48.118;11.600;2022-10-16T08:03:26;19.50;99.90
1830;DHT22;914;48.118;11.600;2022-10-16T08:05:52;19.50;99.90
1830;DHT22;914;48.118;11.600;2022-10-16T08:08:19;19.50;99.90
1830;DHT22;914;48.118;11.600;2022-10-16T08:10:45;19.60;99.90
1830;DHT22;914;48.118;11.600;2022-10-16T08:13:11;19.70;99.90
1830;DHT22;914;48.118;11.600;2022-10-16T08:15:40;19.90;99.90
1830;DHT22;914;48.118;11.600;2022-10-16T08:18:06;20.10;99.90
1830;DHT22;914;48.118;11.600;2022-10-16T08:20:33;20.10;99.90
1830;DHT22;914;48.118;11.600;2022-10-16T08:23:02;20.10;99.90
1830;DHT22;914;48.118;11.600;2022-10-16T08:25:28;20.30;99.90
1830;DHT22;914;48.118;11.600;2022-10-16T08:27:54;20.40;99.90
1830;DHT22;914;48.118;11.600;2022-10-16T08:30:22;20.60;99.90
1830;DHT22;914;48.118;11.600;2022-10-16T08:32:48;20.80;99.90
1830;DHT22;914;48.118;11.600;2022-10-16T08:35:15;20.90;99.90
1830;DHT22;914;48.118;11.600;2022-10-16T08:37:44;21.00;99.90
1830;DHT22;914;48.118;11.600;2022-10-16T08:40:20;21.10;99.90
1830;DHT22;914;48.118;11.600;2022-10-16T08:48:45;21.30;99.90
1830;DHT22;914;48.118;11.600;2022-10-16T08:51:22;21.50;99.90
1830;DHT22;914;48.118;11.600;2022-10-16T08:54:10;21.40;99.90
1830;DHT22;914;48.118;11.600;2022-10-16T08:56:40;21.70;99.90
1830;DHT22;914;48.118;11.600;2022-10-16T08:59:10;21.90;99.90
1830;DHT22;914;48.118;11.600;2022-10-16T09:01:54;22.00;99.80
1830;DHT22;914;48.118;11.600;2022-10-16T09:04:50;22.10;99.90
1830;DHT22;914;48.118;11.600;2022-10-16T09:07:27;22.40;99.40
1830;DHT22;914;48.118;11.600;2022-10-16T09:10:28;22.50;99.30
1830;DHT22;914;48.118;11.600;2022-10-16T09:13:23;22.50;98.90
1830;DHT22;914;48.118;11.600;2022-10-16T09:18:59;22.80;98.40
1830;DHT22;914;48.118;11.600;2022-10-16T09:21:30;22.50;98.40
1830;DHT22;914;48.118;11.600;2022-10-16T09:24:16;22.50;98.50
1830;DHT22;914;48.118;11.600;2022-10-16T09:26:43;23.00;98.60
1830;DHT22;914;48.118;11.600;2022-10-16T09:29:17;23.50;97.90
1830;DHT22;914;48.118;11.600;2022-10-16T09:31:46;23.40;97.20
1830;DHT22;914;48.118;11.600;2022-10-16T09:36:50;23.40;97.50
1830;DHT22;914;48.118;11.600;2022-10-16T09:39:16;23.30;97.30
1830;DHT22;914;48.118;11.600;2022-10-16T09:41:44;23.70;97.00
1830;DHT22;914;48.118;11.600;2022-10-16T09:44:30;23.60;97.00
1830;DHT22;914;48.118;11.600;2022-10-16T09:47:15;23.60;97.30
1830;DHT22;914;48.118;11.600;2022-10-16T09:50:02;23.80;96.60
1830;DHT22;914;48.118;11.600;2022-10-16T09:52:30;24.10;96.70
1830;DHT22;914;48.118;11.600;2022-10-16T09:54:58;24.10;96.70
1830;DHT22;914;48.118;11.600;2022-10-16T09:57:26;24.60;96.50
1830;DHT22;914;48.118;11.600;2022-10-16T09:59:57;24.80;96.10
1830;DHT22;914;48.118;11.600;2022-10-16T10:02:30;24.60;95.80
1830;DHT22;914;48.118;11.600;2022-10-16T10:04:57;24.40;95.90
1830;DHT22;914;48.118;11.600;2022-10-16T10:07:34;24.70;96.40
1830;DHT22;914;48.118;11.600;2022-10-16T10:10:04;24.90;94.90
1830;DHT22;914;48.118;11.600;2022-10-16T10:12:32;25.00;95.70
1830;DHT22;914;48.118;11.600;2022-10-16T10:15:11;25.20;95.30
1830;DHT22;914;48.118;11.600;2022-10-16T10:20:41;25.50;94.10
1830;DHT22;914;48.118;11.600;2022-10-16T10:23:23;25.60;94.10
1830;DHT22;914;48.118;11.600;2022-10-16T10:25:52;25.60;93.40
1830;DHT22;914;48.118;11.600;2022-10-16T10:36:34;26.00;94.10
1830;DHT22;914;48.118;11.600;2022-10-16T10:47:44;26.20;92.90
1830;DHT22;914;48.118;11.600;2022-10-16T10:53:40;26.60;91.40
1830;DHT22;914;48.118;11.600;2022-10-16T10:56:40;26.60;91.50
1830;DHT22;914;48.118;11.600;2022-10-16T10:59:56;27.10;92.20
1830;DHT22;914;48.118;11.600;2022-10-16T11:02:35;27.50;89.90
1830;DHT22;914;48.118;11.600;2022-10-16T11:08:08;28.00;88.90
1830;DHT22;914;48.118;11.600;2022-10-16T11:10:45;28.10;88.40
1830;DHT22;914;48.118;11.600;2022-10-16T11:16:13;28.60;85.70
1830;DHT22;914;48.118;11.600;2022-10-16T11:18:50;28.60;84.50
1830;DHT22;914;48.118;11.600;2022-10-16T11:21:19;28.70;83.00
1830;DHT22;914;48.118;11.600;2022-10-16T11:23:59;29.00;83.30
1830;DHT22;914;48.118;11.600;2022-10-16T11:26:30;28.80;84.30
1830;DHT22;914;48.118;11.600;2022-10-16T11:28:59;29.00;84.80
1830;DHT22;914;48.118;11.600;2022-10-16T11:31:52;29.40;82.10
1830;DHT22;914;48.118;11.600;2022-10-16T11:37:12;30.50;79.10
1830;DHT22;914;48.118;11.600;2022-10-16T11:39:40;30.70;81.10
1830;DHT22;914;48.118;11.600;2022-10-16T11:42:19;30.70;81.20
1830;DHT22;914;48.118;11.600;2022-10-16T11:45:07;30.90;80.70
1830;DHT22;914;48.118;11.600;2022-10-16T11:47:44;30.20;77.40
1830;DHT22;914;48.118;11.600;2022-10-16T11:50:31;30.10;71.20
1830;DHT22;914;48.118;11.600;2022-10-16T11:53:16;30.10;78.00
1830;DHT22;914;48.118;11.600;2022-10-16T11:55:46;30.30;78.00
1830;DHT22;914;48.118;11.600;2022-10-16T11:58:27;30.30;78.20
1830;DHT22;914;48.118;11.600;2022-10-16T12:03:48;29.70;70.00
1830;DHT22;914;48.118;11.600;2022-10-16T12:11:47;29.50;72.60
1830;DHT22;914;48.118;11.600;2022-10-16T12:17:00;29.50;77.50
1830;DHT22;914;48.118;11.600;2022-10-16T12:19:29;29.90;74.00
1830;DHT22;914;48.118;11.600;2022-10-16T12:22:02;30.10;74.90
1830;DHT22;914;48.118;11.600;2022-10-16T12:24:34;30.30;75.70
1830;DHT22;914;48.118;11.600;2022-10-16T12:27:01;30.30;75.50
1830;DHT22;914;48.118;11.600;2022-10-16T12:29:39;29.70;70.20
1830;DHT22;914;48.118;11.600;2022-10-16T12:34:51;29.70;67.20
1830;DHT22;914;48.118;11.600;2022-10-16T12:37:29;29.50;66.20
1830;DHT22;914;48.118;11.600;2022-10-16T12:39:56;29.20;76.50
1830;DHT22;914;48.118;11.600;2022-10-16T12:44:52;29.90;73.50
1830;DHT22;914;48.118;11.600;2022-10-16T12:50:26;29.20;66.80
1830;DHT22;914;48.118;11.600;2022-10-16T12:52:52;29.60;73.10
1830;DHT22;914;48.118;11.600;2022-10-16T12:55:20;29.40;73.30
1830;DHT22;914;48.118;11.600;2022-10-16T13:01:11;29.20;66.00
1830;DHT22;914;48.118;11.600;2022-10-16T13:11:55;28.60;76.70
1830;DHT22;914;48.118;11.600;2022-10-16T13:14:30;29.00;73.90
1830;DHT22;914;48.118;11.600;2022-10-16T13:23:07;29.30;73.00
1830;DHT22;914;48.118;11.600;2022-10-16T13:28:14;27.70;70.30
1830;DHT22;914;48.118;11.600;2022-10-16T13:30:43;27.60;73.00
1830;DHT22;914;48.118;11.600;2022-10-16T13:33:37;27.30;72.10
1830;DHT22;914;48.118;11.600;2022-10-16T13:36:04;27.20;72.80
1830;DHT22;914;48.118;11.600;2022-10-16T13:38:32;27.30;75.30
1830;DHT22;914;48.118;11.600;2022-10-16T13:41:04;27.70;79.60
1830;DHT22;914;48.118;11.600;2022-10-16T13:43:57;27.90;78.00
1830;DHT22;914;48.118;11.600;2022-10-16T13:46:24;27.90;72.30
1830;DHT22;914;48.118;11.600;2022-10-16T13:49:01;27.70;70.30
1830;DHT22;914;48.118;11.600;2022-10-16T13:51:28;26.70;72.20
1830;DHT22;914;48.118;11.600;2022-10-16T13:53:55;26.80;73.60
1830;DHT22;914;48.118;11.600;2022-10-16T13:56:22;27.50;76.90
1830;DHT22;914;48.118;11.600;2022-10-16T13:59:22;27.80;82.40
1830;DHT22;914;48.118;11.600;2022-10-16T14:01:46;28.00;78.40
1830;DHT22;914;48.118;11.600;2022-10-16T14:04:13;28.50;73.70
1830;DHT22;914;48.118;11.600;2022-10-16T14:06:42;28.60;78.00
1830;DHT22;914;48.118;11.600;2022-10-16T14:12:02;27.80;71.70
1830;DHT22;914;48.118;11.600;2022-10-16T14:14:43;27.30;73.10
1830;DHT22;914;48.118;11.600;2022-10-16T14:17:18;27.20;73.60
1830;DHT22;914;48.118;11.600;2022-10-16T14:19:47;26.60;72.90
1830;DHT22;914;48.118;11.600;2022-10-16T14:22:35;26.50;72.70
1830;DHT22;914;48.118;11.600;2022-10-16T14:30:28;26.30;73.30
1830;DHT22;914;48.118;11.600;2022-10-16T14:32:59;26.40;73.30
1830;DHT22;914;48.118;11.600;2022-10-16T14:35:36;26.30;71.80
1830;DHT22;914;48.118;11.600;2022-10-16T14:38:04;26.30;72.70
1830;DHT22;914;48.118;11.600;2022-10-16T14:40:33;26.50;74.10
1830;DHT22;914;48.118;11.600;2022-10-16T14:43:00;26.40;73.90
1830;DHT22;914;48.118;11.600;2022-10-16T14:45:31;26.20;72.70
1830;DHT22;914;48.118;11.600;2022-10-16T14:48:05;26.00;73.90
1830;DHT22;914;48.118;11.600;2022-10-16T14:50:31;26.00;72.40
1830;DHT22;914;48.118;11.600;2022-10-16T14:52:58;26.20;74.50
1830;DHT22;914;48.118;11.600;2022-10-16T14:55:24;26.30;72.70
1830;DHT22;914;48.118;11.600;2022-10-16T14:57:50;26.40;72.90
1830;DHT22;914;48.118;11.600;2022-10-16T15:00:22;26.10;71.80
1830;DHT22;914;48.118;11.600;2022-10-16T15:02:49;26.20;71.70
1830;DHT22;914;48.118;11.600;2022-10-16T15:05:18;26.10;72.80
1830;DHT22;914;48.118;11.600;2022-10-16T15:07:45;25.70;73.10
1830;DHT22;914;48.118;11.600;2022-10-16T15:10:12;25.30;74.30
1830;DHT22;914;48.118;11.600;2022-10-16T15:12:38;25.20;75.30
1830;DHT22;914;48.118;11.600;2022-10-16T15:17:52;25.00;75.70
1830;DHT22;914;48.118;11.600;2022-10-16T15:20:22;25.10;75.40
1830;DHT22;914;48.118;11.600;2022-10-16T15:22:48;24.90;76.00
1830;DHT22;914;48.118;11.600;2022-10-16T15:25:37;24.80;76.30
1830;DHT22;914;48.118;11.600;2022-10-16T15:28:05;24.90;77.00
1830;DHT22;914;48.118;11.600;2022-10-16T15:30:31;25.20;77.40
1830;DHT22;914;48.118;11.600;2022-10-16T15:32:57;25.00;78.00
1830;DHT22;914;48.118;11.600;2022-10-16T15:35:23;24.50;79.60
1830;DHT22;914;48.118;11.600;2022-10-16T15:37:49;24.20;81.40
1830;DHT22;914;48.118;11.600;2022-10-16T15:40:17;24.00;82.70
1830;DHT22;914;48.118;11.600;2022-10-16T15:42:43;23.60;84.30
1830;DHT22;914;48.118;11.600;2022-10-16T15:45:10;23.90;85.10
1830;DHT22;914;48.118;11.600;2022-10-16T15:47:36;24.00;85.10
1830;DHT22;914;48.118;11.600;2022-10-16T15:50:02;24.20;85.10
1830;DHT22;914;48.118;11.600;2022-10-16T15:52:29;24.10;85.00
1830;DHT22;914;48.118;11.600;2022-10-16T15:54:57;24.10;85.50
1830;DHT22;914;48.118;11.600;2022-10-16T15:57:23;24.20;85.80
1830;DHT22;914;48.118;11.600;2022-10-16T15:59:49;24.30;85.20
1830;DHT22;914;48.118;11.600;2022-10-16T16:02:17;24.20;85.70
1830;DHT22;914;48.118;11.600;2022-10-16T16:04:43;24.10;86.50
1830;DHT22;914;48.118;11.600;2022-10-16T16:07:08;24.10;87.20
1830;DHT22;914;48.118;11.600;2022-10-16T16:09:34;23.80;86.70
1830;DHT22;914;48.118;11.600;2022-10-16T16:12:00;23.60;88.70
1830;DHT22;914;48.118;11.600;2022-10-16T16:14:27;23.60;88.60
1830;DHT22;914;48.118;11.600;2022-10-16T16:16:56;23.70;88.40
1830;DHT22;914;48.118;11.600;2022-10-16T16:19:22;23.90;88.40
1830;DHT22;914;48.118;11.600;2022-10-16T16:21:48;24.20;88.30
1830;DHT22;914;48.118;11.600;2022-10-16T16:24:14;24.30;88.00
1830;DHT22;914;48.118;11.600;2022-10-16T16:26:40;24.40;90.20
1830;DHT22;914;48.118;11.600;2022-10-16T16:29:13;24.50;90.00
1830;DHT22;914;48.118;11.600;2022-10-16T16:31:39;24.50;90.10
1830;DHT22;914;48.118;11.600;2022-10-16T16:34:05;24.70;89.30
1830;DHT22;914;48.118;11.600;2022-10-16T16:36:32;24.50;90.80
1830;DHT22;914;48.118;11.600;2022-10-16T16:38:57;24.40;91.20
1830;DHT22;914;48.118;11.600;2022-10-16T16:41:26;24.40;91.20
1830;DHT22;914;48.118;11.600;2022-10-16T16:43:53;24.20;92.00
1830;DHT22;914;48.118;11.600;2022-10-16T16:46:19;24.20;91.10
1830;DHT22;914;48.118;11.600;2022-10-16T16:48:45;24.10;91.40
1830;DHT22;914;48.118;11.600;2022-10-16T16:51:16;24.00;91.70
1830;DHT22;914;48.118;11.600;2022-10-16T16:53:45;23.70;90.90
1830;DHT22;914;48.118;11.600;2022-10-16T16:56:11;23.70;92.20
1830;DHT22;914;48.118;11.600;2022-10-16T16:58:37;23.70;92.20
1830;DHT22;914;48.118;11.600;2022-10-16T17:01:03;23.70;92.20
1830;DHT22;914;48.118;11.600;2022-10-16T17:03:34;23.60;92.40
1830;DHT22;914;48.118;11.600;2022-10-16T17:06:02;23.60;93.10
1830;DHT22;914;48.118;11.600;2022-10-16T17:08:29;23.60;93.90
1830;DHT22;914;48.118;11.600;2022-10-16T17:10:56;23.50;93.80
1830;DHT22;914;48.118;11.600;2022-10-16T17:13:26;23.50;93.70
1830;DHT22;914;48.118;11.600;2022-10-16T17:15:53;23.50;94.10
1830;DHT22;914;48.118;11.600;2022-10-16T17:18:19;23.40;94.30
1830;DHT22;914;48.118;11.600;2022-10-16T17:20:47;23.30;94.00
1830;DHT22;914;48.118;11.600;2022-10-16T17:23:13;23.20;94.80
1830;DHT22;914;48.118;11.600;2022-10-16T17:25:40;23.20;94.50
1830;DHT22;914;48.118;11.600;2022-10-16T17:28:10;23.10;94.10
1830;DHT22;914;48.118;11.600;2022-10-16T17:30:40;23.10;94.90
1830;DHT22;914;48.118;11.600;2022-10-16T17:33:06;23.00;95.50
1830;DHT22;914;48.118;11.600;2022-10-16T17:35:43;23.00;95.40
1830;DHT22;914;48.118;11.600;2022-10-16T17:38:10;22.90;95.60
1830;DHT22;914;48.118;11.600;2022-10-16T17:40:36;23.00;95.00
1830;DHT22;914;48.118;11.600;2022-10-16T17:43:02;22.90;94.90
1830;DHT22;914;48.118;11.600;2022-10-16T17:45:28;23.00;94.60
1830;DHT22;914;48.118;11.600;2022-10-16T17:47:54;22.90;95.00
1830;DHT22;914;48.118;11.600;2022-10-16T17:50:20;22.80;94.70
1830;DHT22;914;48.118;11.600;2022-10-16T17:52:46;22.80;94.80
1830;DHT22;914;48.118;11.600;2022-10-16T17:55:12;22.70;95.30